Time;durP1;ratioP1;P1;durP2;ratioP2;P2;SDS_P1;SDS_P2;PMS_P1;PMS_P2;Temp;Humidity;BMP_temperature;BMP_pressure;BME280_temperature;BME280_humidity;BME280_pressure;Samples;Min_cycle;Max_cycle;Signal;HPM_P1;HPM_P2
2023/09/30 00:01:10;;;;;;;11.18;6.30;;;384.20;2329.60;;;;;;5070007;28;20028;-59
2023/09/30 00:03:36;;;;;;;10.60;7.38;;;384.10;2329.60;;;;;;5052752;28;20044;-60
2023/09/30 00:06:02;;;;;;;11.55;6.13;;;384.20;2329.60;;;;;;5061614;28;20103;-59
2023/09/30 00:08:27;;;;;;;10.40;6.82;;;384.20;2329.60;;;;;;5054915;28;20486;-58
2023/09/30 00:10:54;;;;;;;16.85;7.00;;;384.10;2329.60;;;;;;5071471;28;20017;-59
2023/09/30 00:13:20;;;;;;;14.23;6.70;;;384.10;2329.60;;;;;;5061875;28;20028;-60
2023/09/30 00:15:47;;;;;;;10.80;6.65;;;384.10;2329.60;;;;;;5069657;28;21810;-60
2023/09/30 00:18:13;;;;;;;12.15;6.38;;;384.10;2329.60;;;;;;5059895;28;20061;-59
2023/09/30 00:20:39;;;;;;;9.43;6.07;;;384.10;2329.60;;;;;;5074375;28;20171;-58
2023/09/30 00:23:06;;;;;;;10.68;6.07;;;384.10;2329.60;;;;;;5062566;28;20148;-58
2023/09/30 00:25:34;;;;;;;9.43;5.72;;;384.10;2329.60;;;;;;5070607;28;20074;-59
2023/09/30 00:28:00;;;;;;;9.10;5.95;;;384.10;2329.60;;;;;;5072045;28;20512;-60
2023/09/30 00:30:26;;;;;;;8.77;5.82;;;384.10;2329.60;;;;;;5071426;28;20025;-60
2023/09/30 00:32:52;;;;;;;7.57;5.95;;;384.10;2329.60;;;;;;5067292;28;20064;-60
2023/09/30 00:35:17;;;;;;;8.90;6.50;;;384.00;2329.60;;;;;;5084074;28;20536;-60
2023/09/30 00:37:43;;;;;;;9.98;6.18;;;384.10;2329.60;;;;;;5067897;28;20032;-59
2023/09/30 00:40:13;;;;;;;10.00;6.28;;;384.10;2329.60;;;;;;5070226;28;20058;-58
2023/09/30 00:42:40;;;;;;;10.95;6.07;;;384.00;2329.60;;;;;;5058136;28;20151;-59
2023/09/30 00:45:09;;;;;;;11.38;6.68;;;359.30;2329.60;;;;;;5065753;28;20049;-59
2023/09/30 00:47:36;;;;;;;11.30;6.55;;;359.30;2329.60;;;;;;5066452;28;20024;-59
2023/09/30 00:50:03;;;;;;;11.90;6.63;;;359.20;2329.60;;;;;;5066869;28;20124;-59
2023/09/30 00:52:31;;;;;;;12.95;6.50;;;359.10;2329.60;;;;;;5062710;28;20025;-60
2023/09/30 00:54:58;;;;;;;7.53;5.88;;;359.10;2329.60;;;;;;5060489;28;20091;-60
2023/09/30 00:57:25;;;;;;;10.55;6.47;;;359.00;2329.60;;;;;;5075111;28;20051;-59
2023/09/30 00:59:51;;;;;;;8.88;6.32;;;359.00;2329.60;;;;;;5069152;28;20365;-60
2023/09/30 01:02:22;;;;;;;10.15;6.57;;;359.10;2329.60;;;;;;5073515;28;20370;-59
2023/09/30 01:04:51;;;;;;;12.35;6.53;;;359.20;2329.60;;;;;;5070412;28;20028;-59
2023/09/30 01:07:17;;;;;;;13.13;6.30;;;359.20;2329.60;;;;;;5071068;28;20099;-61
2023/09/30 01:09:43;;;;;;;11.40;5.85;;;359.30;2329.60;;;;;;5082098;28;20111;-60
2023/09/30 01:12:09;;;;;;;15.57;7.28;;;359.30;2329.60;;;;;;5068024;28;20094;-59
2023/09/30 01:14:35;;;;;;;10.55;6.47;;;359.30;2329.60;;;;;;5073073;28;20527;-60
2023/09/30 01:17:01;;;;;;;9.93;5.68;;;359.30;2329.60;;;;;;5072505;28;20382;-59
2023/09/30 01:19:27;;;;;;;8.65;5.82;;;359.30;2329.60;;;;;;5068247;28;20064;-59
2023/09/30 01:21:56;;;;;;;8.38;6.00;;;359.30;2329.60;;;;;;5069744;28;20020;-58
2023/09/30 01:24:22;;;;;;;10.90;6.28;;;384.00;2329.60;;;;;;5078937;28;20036;-59
2023/09/30 01:26:48;;;;;;;10.07;6.32;;;359.30;2329.60;;;;;;5074553;28;20493;-60
2023/09/30 01:29:14;;;;;;;12.85;6.13;;;359.30;2329.60;;;;;;5069285;28;20029;-59
2023/09/30 01:31:40;;;;;;;7.18;5.75;;;359.30;2329.60;;;;;;5071861;28;20500;-60
2023/09/30 01:34:05;;;;;;;8.38;5.53;;;384.00;2329.60;;;;;;5067781;28;20025;-59
2023/09/30 01:36:32;;;;;;;8.85;5.40;;;359.30;2329.60;;;;;;5074715;28;20478;-60
2023/09/30 01:38:58;;;;;;;8.25;5.78;;;384.00;2329.60;;;;;;5069981;28;20020;-60
2023/09/30 01:41:23;;;;;;;8.35;5.10;;;384.10;2329.60;;;;;;5068568;28;20073;-58
2023/09/30 01:43:49;;;;;;;11.98;5.43;;;384.10;2329.60;;;;;;5059310;28;20041;-58
2023/09/30 01:46:15;;;;;;;8.40;5.28;;;384.00;2329.60;;;;;;5076353;28;20078;-59
2023/09/30 01:48:41;;;;;;;7.47;5.63;;;384.00;2329.60;;;;;;5077304;28;20032;-60
2023/09/30 01:51:06;;;;;;;15.02;7.03;;;359.30;2329.60;;;;;;5072517;28;20070;-60
2023/09/30 01:53:33;;;;;;;9.65;6.07;;;359.30;2329.60;;;;;;5072869;28;20077;-59
2023/09/30 01:55:59;;;;;;;8.23;5.57;;;359.30;2329.60;;;;;;5067390;28;20070;-59
2023/09/30 01:58:28;;;;;;;9.07;6.15;;;359.20;2329.60;;;;;;5067485;28;20062;-59
2023/09/30 02:00:54;;;;;;;8.98;6.15;;;359.20;2329.60;;;;;;5071166;28;20024;-59
2023/09/30 02:03:20;;;;;;;8.10;5.78;;;359.20;2329.60;;;;;;5067191;28;20493;-60
2023/09/30 02:05:46;;;;;;;10.43;6.20;;;359.20;2329.60;;;;;;5071046;28;20016;-61
2023/09/30 02:08:13;;;;;;;10.02;7.15;;;359.20;2329.60;;;;;;5064169;28;20128;-58
2023/09/30 02:10:40;;;;;;;9.10;6.35;;;359.20;2329.60;;;;;;5076836;28;20025;-59
2023/09/30 02:13:06;;;;;;;8.07;5.70;;;359.10;2329.60;;;;;;5071840;28;20029;-59
2023/09/30 02:15:33;;;;;;;10.07;6.18;;;359.10;2329.60;;;;;;5070446;28;20016;-59
2023/09/30 02:18:00;;;;;;;12.82;6.28;;;359.10;2329.60;;;;;;5064968;28;20376;-60
2023/09/30 02:20:29;;;;;;;11.02;6.78;;;359.10;2329.60;;;;;;5067363;28;20491;-61
2023/09/30 02:22:55;;;;;;;10.43;7.30;;;359.10;2329.60;;;;;;5070120;28;20127;-60
2023/09/30 02:25:22;;;;;;;8.45;5.88;;;359.00;2329.60;;;;;;5059689;28;20051;-60
2023/09/30 02:27:50;;;;;;;8.15;6.25;;;359.00;2329.60;;;;;;5072382;28;20036;-59
2023/09/30 02:30:16;;;;;;;11.95;6.28;;;359.00;2329.60;;;;;;5066695;28;20103;-61
2023/09/30 02:32:42;;;;;;;15.90;6.97;;;359.00;2329.60;;;;;;5071034;28;20064;-60
2023/09/30 02:35:11;;;;;;;8.18;6.07;;;359.00;2329.60;;;;;;5085772;28;20089;-60
2023/09/30 02:37:37;;;;;;;8.32;6.15;;;359.00;2329.60;;;;;;5060391;28;20036;-61
2023/09/30 02:40:09;;;;;;;10.90;5.90;;;359.00;2329.60;;;;;;5064666;28;20016;-58
2023/09/30 02:42:39;;;;;;;12.77;6.43;;;359.00;2329.60;;;;;;5070030;28;20033;-59
2023/09/30 02:45:06;;;;;;;11.23;6.10;;;359.00;2329.60;;;;;;5071886;28;20017;-59
2023/09/30 02:47:32;;;;;;;9.80;5.97;;;358.90;2329.60;;;;;;5061941;28;20424;-59
2023/09/30 02:49:58;;;;;;;10.50;6.43;;;358.90;2329.60;;;;;;5070706;28;20043;-59
2023/09/30 02:52:25;;;;;;;9.75;6.00;;;358.80;2329.60;;;;;;5060207;28;20036;-60
2023/09/30 02:54:51;;;;;;;9.50;5.88;;;358.80;2329.60;;;;;;5061179;28;20470;-61
2023/09/30 02:57:17;;;;;;;11.85;6.10;;;358.90;2329.60;;;;;;5072423;28;20040;-60
2023/09/30 02:59:44;;;;;;;9.13;5.63;;;359.00;2329.60;;;;;;5072001;28;20056;-60
2023/09/30 03:02:11;;;;;;;8.30;5.80;;;359.00;2329.60;;;;;;5062230;28;20024;-60
2023/09/30 03:04:37;;;;;;;7.13;6.00;;;359.10;2329.60;;;;;;5070813;28;20077;-60
2023/09/30 03:07:03;;;;;;;11.88;6.38;;;359.10;2329.60;;;;;;5059501;28;20029;-59
2023/09/30 03:09:29;;;;;;;8.77;6.45;;;359.00;2329.60;;;;;;5072639;28;20576;-59
2023/09/30 03:11:59;;;;;;;6.40;5.53;;;359.00;2329.60;;;;;;5069578;28;20027;-59
2023/09/30 03:14:25;;;;;;;13.15;6.45;;;359.00;2329.60;;;;;;5068848;28;20914;-59
2023/09/30 03:16:51;;;;;;;7.47;5.65;;;358.80;2329.60;;;;;;5065037;28;20024;-60
2023/09/30 03:19:17;;;;;;;9.20;6.93;;;358.60;2329.60;;;;;;5067930;28;20117;-61
2023/09/30 03:21:43;;;;;;;8.10;5.80;;;358.50;2329.60;;;;;;5067975;28;20545;-59
2023/09/30 03:24:09;;;;;;;8.65;6.40;;;358.60;2329.60;;;;;;5075964;28;20054;-60
2023/09/30 03:26:35;;;;;;;9.68;6.32;;;358.60;2329.60;;;;;;5073575;28;20032;-59
2023/09/30 03:29:02;;;;;;;8.70;5.63;;;358.60;2329.60;;;;;;5068738;28;20025;-60
2023/09/30 03:31:27;;;;;;;8.48;6.63;;;358.60;2329.60;;;;;;5067759;28;20017;-58
2023/09/30 03:33:56;;;;;;;10.52;7.30;;;358.60;2329.60;;;;;;5069185;28;20035;-59
2023/09/30 03:36:24;;;;;;;8.52;6.45;;;358.60;2329.60;;;;;;5072951;28;20021;-60
2023/09/30 03:38:54;;;;;;;9.82;6.35;;;358.60;2329.60;;;;;;5066919;28;20027;-60
2023/09/30 03:41:20;;;;;;;10.40;7.05;;;358.50;2329.60;;;;;;5068861;28;20104;-59
2023/09/30 03:43:47;;;;;;;11.15;7.43;;;358.50;2329.60;;;;;;5061907;28;20140;-60
2023/09/30 03:46:13;;;;;;;8.85;5.63;;;358.60;2329.60;;;;;;5077811;28;20028;-59
2023/09/30 03:48:42;;;;;;;14.10;7.15;;;358.60;2329.60;;;;;;5072735;28;20035;-60
2023/09/30 03:51:15;;;;;;;9.23;6.07;;;358.60;2329.60;;;;;;5076145;28;20359;-60
2023/09/30 03:53:44;;;;;;;10.85;6.90;;;358.60;2329.60;;;;;;5072359;28;20469;-61
2023/09/30 03:56:11;;;;;;;7.03;5.43;;;358.60;2329.60;;;;;;5076196;28;20024;-60
2023/09/30 03:58:41;;;;;;;9.02;6.78;;;358.60;2329.60;;;;;;5076508;28;20073;-60
2023/09/30 04:01:07;;;;;;;10.68;6.90;;;358.50;2329.60;;;;;;5076327;28;20089;-58
2023/09/30 04:03:34;;;;;;;11.45;7.03;;;358.50;2329.60;;;;;;5076142;28;20041;-59
2023/09/30 04:09:22;;;;;;;9.68;6.72;;;358.40;2329.60;;;;;;5076075;28;20023;-59
2023/09/30 04:11:47;;;;;;;13.07;6.10;;;358.40;2329.60;;;;;;5076222;28;20028;-59
2023/09/30 04:14:13;;;;;;;10.13;6.00;;;358.40;2329.60;;;;;;5075898;28;20036;-58
2023/09/30 04:16:39;;;;;;;13.13;5.85;;;358.40;2329.60;;;;;;5075836;28;20033;-60
2023/09/30 04:19:07;;;;;;;13.43;6.55;;;358.50;2329.60;;;;;;5076125;28;20037;-59
2023/09/30 04:24:55;;;;;;;10.07;6.82;;;358.60;2329.60;;;;;;5076031;28;20090;-58
2023/09/30 04:27:21;;;;;;;10.05;6.60;;;358.80;2329.60;;;;;;5075822;28;20029;-59
2023/09/30 04:29:47;;;;;;;12.05;6.63;;;358.40;2329.60;;;;;;5075461;28;20021;-60
2023/09/30 04:32:13;;;;;;;9.52;5.93;;;358.40;2329.60;;;;;;5075861;28;20458;-59
2023/09/30 04:34:39;;;;;;;9.15;6.35;;;358.40;2329.60;;;;;;5075425;28;20108;-58
2023/09/30 04:40:26;;;;;;;9.18;6.05;;;358.40;2329.60;;;;;;5075377;28;20027;-59
2023/09/30 04:42:55;;;;;;;9.98;6.35;;;358.40;2329.60;;;;;;5075493;28;20037;-59
2023/09/30 04:45:21;;;;;;;11.43;6.97;;;358.50;2329.60;;;;;;5075533;28;20028;-59
2023/09/30 04:47:49;;;;;;;10.38;7.20;;;358.50;2329.60;;;;;;5075035;28;20043;-59
2023/09/30 04:50:15;;;;;;;8.13;6.60;;;358.40;2329.60;;;;;;5075219;28;20037;-59
2023/09/30 04:56:03;;;;;;;9.13;5.95;;;333.70;2329.60;;;;;;5075336;28;20043;-60
2023/09/30 04:58:29;;;;;;;9.32;5.93;;;358.40;2329.60;;;;;;5075266;28;20032;-60
2023/09/30 05:00:55;;;;;;;10.85;6.07;;;358.50;2329.60;;;;;;5075538;28;20067;-59
2023/09/30 05:03:20;;;;;;;9.18;6.53;;;358.50;2329.60;;;;;;5075127;28;20434;-61
2023/09/30 05:05:46;;;;;;;7.47;6.03;;;358.60;2329.60;;;;;;5075156;28;20043;-61
2023/09/30 05:08:14;;;;;;;11.52;7.43;;;358.70;2329.60;;;;;;5074975;28;20032;-60
2023/09/30 05:10:39;;;;;;;11.00;6.55;;;358.90;2329.60;;;;;;5074765;28;20021;-60
2023/09/30 05:13:05;;;;;;;13.93;7.28;;;358.90;2329.60;;;;;;5074458;28;20016;-60
2023/09/30 05:15:32;;;;;;;13.07;8.20;;;359.00;2329.60;;;;;;5066130;28;20028;-59
2023/09/30 05:17:58;;;;;;;10.07;7.28;;;359.10;2329.60;;;;;;5071841;28;20163;-60
2023/09/30 05:20:24;;;;;;;11.32;6.70;;;359.10;2329.60;;;;;;5068001;28;20123;-60
2023/09/30 05:22:50;;;;;;;11.02;7.53;;;359.30;2329.60;;;;;;5060535;28;20032;-60
2023/09/30 05:25:16;;;;;;;29.80;9.43;;;359.30;2329.60;;;;;;5076815;28;20023;-60
2023/09/30 05:27:43;;;;;;;10.95;6.30;;;384.00;2329.60;;;;;;5073605;28;20470;-61
2023/09/30 05:30:10;;;;;;;11.40;7.13;;;384.00;2329.60;;;;;;5084825;28;20102;-60
2023/09/30 05:32:38;;;;;;;9.32;6.50;;;384.00;2329.60;;;;;;5072224;28;20030;-61
2023/09/30 05:35:05;;;;;;;10.80;6.88;;;384.10;2329.60;;;;;;5066547;28;20033;-60
2023/09/30 05:37:31;;;;;;;10.63;7.00;;;384.10;2329.60;;;;;;5064534;28;20040;-60
2023/09/30 05:39:57;;;;;;;11.95;7.22;;;384.20;2329.60;;;;;;5086558;28;20465;-60
2023/09/30 05:42:23;;;;;;;9.98;6.35;;;384.30;2329.60;;;;;;5073476;28;20024;-60
2023/09/30 05:44:49;;;;;;;10.38;6.85;;;384.60;2329.60;;;;;;5072385;28;20085;-60
2023/09/30 05:47:17;;;;;;;13.55;7.90;;;384.70;2329.60;;;;;;5061642;28;20021;-60
2023/09/30 05:49:43;;;;;;;12.50;7.35;;;384.60;2329.60;;;;;;5074161;28;20432;-60
2023/09/30 05:52:09;;;;;;;11.48;6.40;;;384.80;2329.60;;;;;;5059703;28;20021;-60
2023/09/30 05:54:34;;;;;;;9.10;6.10;;;384.90;2329.60;;;;;;5062447;28;20230;-60
2023/09/30 05:57:00;;;;;;;13.98;6.60;;;384.80;2329.60;;;;;;5069509;28;20073;-60
2023/09/30 05:59:28;;;;;;;16.70;6.65;;;409.70;2355.20;;;;;;5076413;28;20040;-61
2023/09/30 06:01:53;;;;;;;11.05;6.97;;;435.30;2355.20;;;;;;5073646;28;20051;-59
2023/09/30 06:04:19;;;;;;;13.68;6.85;;;487.30;2380.80;;;;;;5065131;28;20040;-59
2023/09/30 06:06:45;;;;;;;8.23;7.35;;;563.60;2432.00;;;;;;5070612;28;20032;-59
2023/09/30 06:09:11;;;;;;;10.20;7.30;;;589.60;2252.80;;;;;;5071180;28;20106;-61
2023/09/30 06:11:37;;;;;;;7.18;6.47;;;614.90;2099.20;;;;;;5066220;28;20036;-60
2023/09/30 06:14:06;;;;;;;9.25;6.45;;;640.40;1971.20;;;;;;5070690;28;20029;-59
2023/09/30 06:16:32;;;;;;;9.20;6.18;;;665.70;1920.00;;;;;;5063185;28;20071;-59
2023/09/30 06:18:58;;;;;;;10.88;7.68;;;665.80;1868.80;;;;;;5072542;28;20067;-60
2023/09/30 06:21:28;;;;;;;15.30;9.18;;;665.80;1843.20;;;;;;5059205;28;20025;-59
2023/09/30 06:23:55;;;;;;;9.25;7.55;;;665.60;1868.80;;;;;;5059553;28;20025;-60
2023/09/30 06:26:21;;;;;;;11.00;7.80;;;665.90;1843.20;;;;;;5075874;28;20019;-62
2023/09/30 06:28:47;;;;;;;9.32;8.48;;;691.40;1792.00;;;;;;5068886;28;20032;-65
2023/09/30 06:31:15;;;;;;;12.50;10.02;;;717.00;1766.40;;;;;;5073723;28;20016;-64
2023/09/30 06:33:41;;;;;;;10.13;8.07;;;717.50;1740.80;;;;;;5068301;28;20430;-64
2023/09/30 06:36:14;;;;;;;10.05;8.93;;;742.80;1715.20;;;;;;5073964;28;20052;-64
2023/09/30 06:38:41;;;;;;;13.07;8.57;;;742.80;1689.60;;;;;;5075492;28;20035;-65
2023/09/30 06:41:08;;;;;;;10.40;8.60;;;743.10;1664.00;;;;;;5058392;28;20025;-64
2023/09/30 06:43:38;;;;;;;9.18;8.20;;;743.00;1664.00;;;;;;5065733;28;20037;-64
2023/09/30 06:46:10;;;;;;;10.98;8.98;;;743.00;1664.00;;;;;;5068762;28;20371;-64
2023/09/30 06:48:37;;;;;;;8.68;7.85;;;743.10;1638.40;;;;;;5059824;28;20499;-64
2023/09/30 06:51:03;;;;;;;8.50;7.70;;;743.10;1612.80;;;;;;5061082;28;20037;-64
2023/09/30 06:53:29;;;;;;;8.85;8.00;;;768.60;1561.60;;;;;;5067513;28;20077;-64
2023/09/30 06:55:55;;;;;;;9.38;8.43;;;793.70;1587.20;;;;;;5070634;28;20028;-64
2023/09/30 06:58:21;;;;;;;9.48;8.65;;;794.50;1536.00;;;;;;5084700;28;20033;-63
2023/09/30 07:00:56;;;;;;;10.13;9.23;;;819.60;1536.00;;;;;;5071914;28;20528;-65
2023/09/30 07:03:22;;;;;;;13.32;9.65;;;820.10;1510.40;;;;;;5069311;28;20055;-64
2023/09/30 07:05:51;;;;;;;10.68;9.57;;;845.20;1510.40;;;;;;5061658;28;20016;-64
2023/09/30 07:08:17;;;;;;;13.10;11.15;;;845.70;1484.80;;;;;;5067451;28;20032;-65
2023/09/30 07:10:45;;;;;;;12.93;11.73;;;845.20;1484.80;;;;;;5070638;28;20016;-66
2023/09/30 07:13:12;;;;;;;13.40;12.10;;;845.40;1484.80;;;;;;5062767;28;20444;-66
2023/09/30 07:15:37;;;;;;;13.43;12.07;;;845.70;1459.20;;;;;;5066629;28;20036;-64
2023/09/30 07:18:03;;;;;;;13.65;12.27;;;845.70;1484.80;;;;;;5063914;28;20382;-66
2023/09/30 07:20:32;;;;;;;19.63;12.48;;;896.90;1382.40;;;;;;5063905;28;20044;-66
2023/09/30 07:22:59;;;;;;;12.60;10.27;;;896.60;1356.80;;;;;;5065385;28;20119;-65
2023/09/30 07:25:25;;;;;;;14.45;10.55;;;845.40;1484.80;;;;;;5080047;28;20023;-65
2023/09/30 07:27:51;;;;;;;11.70;10.68;;;844.90;1510.40;;;;;;5071831;28;20128;-66
2023/09/30 07:30:17;;;;;;;14.07;11.80;;;819.70;1510.40;;;;;;5062184;28;20044;-66
2023/09/30 07:32:44;;;;;;;14.40;12.90;;;844.90;1510.40;;;;;;5067735;28;20056;-66
2023/09/30 07:35:14;;;;;;;14.35;12.85;;;845.40;1459.20;;;;;;5070089;28;20024;-65
2023/09/30 07:37:39;;;;;;;18.33;12.65;;;845.20;1510.40;;;;;;5063119;28;20031;-66
2023/09/30 07:40:06;;;;;;;15.23;13.90;;;870.50;1459.20;;;;;;5073021;28;20099;-66
2023/09/30 07:42:33;;;;;;;21.40;19.50;;;896.90;1356.80;;;;;;5059865;28;20052;-67
2023/09/30 07:44:59;;;;;;;16.52;14.48;;;922.40;1331.20;;;;;;5064835;28;21005;-66
2023/09/30 07:47:24;;;;;;;16.15;14.68;;;922.50;1356.80;;;;;;5068497;28;20036;-66
2023/09/30 07:49:50;;;;;;;16.27;14.57;;;896.80;1356.80;;;;;;5071402;28;20047;-66
2023/09/30 07:52:16;;;;;;;16.92;15.25;;;896.60;1356.80;;;;;;5057895;28;20028;-67
2023/09/30 07:54:42;;;;;;;16.27;14.77;;;922.50;1331.20;;;;;;5059009;28;20132;-65
2023/09/30 07:57:07;;;;;;;15.07;13.77;;;947.70;1280.00;;;;;;5068376;28;20043;-66
2023/09/30 07:59:33;;;;;;;19.20;13.00;;;947.20;1305.60;;;;;;5061734;28;20098;-66
2023/09/30 08:01:59;;;;;;;16.20;12.82;;;922.50;1305.60;;;;;;5070136;28;20043;-66
2023/09/30 08:04:25;;;;;;;13.88;12.48;;;947.20;1305.60;;;;;;5065091;28;20140;-66
2023/09/30 08:06:51;;;;;;;19.80;13.20;;;921.70;1331.20;;;;;;5064082;28;20033;-66
2023/09/30 08:09:18;;;;;;;12.25;10.95;;;922.10;1305.60;;;;;;5064335;28;20077;-67
2023/09/30 08:11:44;;;;;;;14.25;11.88;;;922.50;1280.00;;;;;;5066867;28;20020;-66
2023/09/30 08:14:10;;;;;;;13.43;12.02;;;947.80;1280.00;;;;;;5088351;28;20031;-67
2023/09/30 08:16:36;;;;;;;14.77;10.85;;;998.40;1254.40;;;;;;5088593;28;20099;-66
2023/09/30 08:19:03;;;;;;;15.40;10.88;;;998.60;1228.80;;;;;;5088416;28;20404;-66
2023/09/30 08:21:29;;;;;;;13.02;9.63;;;973.70;1203.20;;;;;;5088144;28;20039;-67
2023/09/30 08:23:55;;;;;;;12.00;10.50;;;1024.20;1203.20;;;;;;5088234;28;20036;-67
2023/09/30 08:26:22;;;;;;;10.52;9.48;;;1024.60;1152.00;;;;;;5087704;28;20050;-66
2023/09/30 08:28:48;;;;;;;15.30;10.68;;;1050.20;1152.00;;;;;;5090580;28;20024;-67
2023/09/30 08:31:14;;;;;;;11.35;10.45;;;1050.10;1126.40;;;;;;5078717;28;20051;-64
2023/09/30 08:33:43;;;;;;;11.75;10.55;;;1075.40;1075.20;;;;;;5091744;28;20051;-66
2023/09/30 08:36:10;;;;;;;14.85;10.18;;;1024.00;1126.40;;;;;;5090421;28;20089;-65
2023/09/30 08:38:36;;;;;;;11.02;9.88;;;1024.40;1100.80;;;;;;5079658;28;20933;-67
2023/09/30 08:41:03;;;;;;;12.65;10.45;;;1049.80;1100.80;;;;;;5070448;28;20067;-66
2023/09/30 08:43:31;;;;;;;11.23;10.02;;;1050.50;1049.60;;;;;;5075451;28;20071;-66
2023/09/30 08:45:58;;;;;;;14.88;11.70;;;1050.00;1075.20;;;;;;5070575;28;20626;-67
2023/09/30 08:48:27;;;;;;;11.48;10.38;;;1050.00;1100.80;;;;;;5072659;28;20040;-65
2023/09/30 08:50:54;;;;;;;11.57;10.07;;;1024.60;1075.20;;;;;;5074921;28;20110;-67
2023/09/30 08:53:20;;;;;;;11.10;10.10;;;973.10;1152.00;;;;;;5071049;28;20052;-66
2023/09/30 08:55:48;;;;;;;58.78;17.50;;;948.10;1152.00;;;;;;5081555;28;20031;-67
2023/09/30 08:58:14;;;;;;;14.13;10.63;;;947.20;1152.00;;;;;;5080489;28;20381;-66
2023/09/30 09:00:40;;;;;;;10.40;8.52;;;922.00;1177.60;;;;;;5081019;28;20028;-64
2023/09/30 09:03:07;;;;;;;12.65;8.95;;;896.20;1228.80;;;;;;5082194;28;20155;-64
2023/09/30 09:05:33;;;;;;;12.80;8.23;;;870.70;1254.40;;;;;;5085064;28;20043;-65
2023/09/30 09:07:59;;;;;;;12.52;8.63;;;845.70;1331.20;;;;;;5083895;28;20028;-65
2023/09/30 09:10:25;;;;;;;11.30;9.07;;;844.90;1382.40;;;;;;5088781;28;20031;-65
2023/09/30 09:12:57;;;;;;;14.52;10.23;;;819.50;1408.00;;;;;;5070855;28;20423;-65
2023/09/30 09:15:30;;;;;;;11.90;8.93;;;794.10;1408.00;;;;;;5077362;28;20081;-64
2023/09/30 09:17:56;;;;;;;17.30;11.13;;;794.10;1382.40;;;;;;5082455;28;20437;-65
2023/09/30 09:20:25;;;;;;;13.80;9.93;;;793.80;1408.00;;;;;;5086697;28;20112;-65
2023/09/30 09:22:54;;;;;;;13.90;9.48;;;793.60;1408.00;;;;;;5087972;28;20032;-65
2023/09/30 09:25:22;;;;;;;10.77;9.30;;;768.80;1382.40;;;;;;5082964;28;20059;-65
2023/09/30 09:27:49;;;;;;;12.07;9.75;;;768.60;1408.00;;;;;;5083022;28;20085;-65
2023/09/30 09:30:22;;;;;;;16.17;9.63;;;768.60;1433.60;;;;;;5089479;28;20020;-65
2023/09/30 09:32:54;;;;;;;;;;;768.60;1433.60;;;;;;5090518;28;20024;-64
2023/09/30 09:35:21;;;;;;;19.88;12.02;;;768.40;1459.20;;;;;;5090817;28;19904;-65
2023/09/30 09:37:58;;;;;;;14.63;9.85;;;768.20;1484.80;;;;;;5090553;28;20044;-64
2023/09/30 09:40:26;;;;;;;12.30;11.02;;;768.10;1510.40;;;;;;5080978;28;20032;-65
2023/09/30 09:42:54;;;;;;;12.40;10.30;;;743.20;1510.40;;;;;;5090776;28;20149;-65
2023/09/30 09:45:22;;;;;;;14.20;10.30;;;742.40;1510.40;;;;;;5074214;28;20096;-64
2023/09/30 09:47:48;;;;;;;13.50;9.77;;;717.60;1510.40;;;;;;5076279;28;20466;-64
2023/09/30 09:50:15;;;;;;;12.85;9.60;;;742.50;1510.40;;;;;;5090133;28;20107;-65
2023/09/30 09:52:45;;;;;;;17.67;10.80;;;717.70;1484.80;;;;;;5080274;28;20016;-65
2023/09/30 09:55:11;;;;;;;11.75;9.50;;;717.20;1510.40;;;;;;5086908;28;20046;-65
2023/09/30 09:57:38;;;;;;;12.68;10.10;;;742.40;1536.00;;;;;;5090739;28;20027;-64
2023/09/30 10:00:13;;;;;;;19.25;10.52;;;717.50;1510.40;;;;;;5089782;28;20104;-65
2023/09/30 10:02:41;;;;;;;13.55;10.40;;;717.20;1536.00;;;;;;5090456;28;20035;-64
2023/09/30 10:05:08;;;;;;;12.90;9.85;;;716.90;1536.00;;;;;;5090315;28;20024;-65
2023/09/30 10:07:38;;;;;;;16.35;10.80;;;717.10;1536.00;;;;;;5090211;28;20028;-64
2023/09/30 10:10:10;;;;;;;15.02;10.07;;;717.10;1561.60;;;;;;5089735;28;20056;-65
2023/09/30 10:12:41;;;;;;;14.15;9.52;;;717.40;1587.20;;;;;;5090299;28;20444;-64
2023/09/30 10:15:24;;;;;;;14.68;9.73;;;717.50;1561.60;;;;;;5075323;28;20127;-64
2023/09/30 10:18:16;;;;;;;21.70;10.95;;;717.10;1561.60;;;;;;5074219;28;20489;-64
2023/09/30 10:20:48;;;;;;;17.95;8.70;;;716.90;1587.20;;;;;;5086044;28;20048;-64
2023/09/30 10:23:25;;;;;;;15.40;9.95;;;692.00;1587.20;;;;;;5089349;28;20028;-64
2023/09/30 10:26:15;;;;;;;12.10;8.90;;;691.90;1587.20;;;;;;5089846;28;20035;-63
2023/09/30 10:28:49;;;;;;;14.00;7.55;;;692.10;1587.20;;;;;;5089461;28;20023;-64
2023/09/30 10:31:25;;;;;;;11.25;8.23;;;716.80;1587.20;;;;;;5089567;28;20097;-64
2023/09/30 10:34:00;;;;;;;11.23;8.88;;;692.10;1536.00;;;;;;5089848;28;20024;-64
2023/09/30 10:36:30;;;;;;;14.05;9.38;;;716.90;1587.20;;;;;;5089840;28;20016;-64
2023/09/30 10:38:56;;;;;;;9.23;6.93;;;716.80;1510.40;;;;;;5089391;28;20492;-65
2023/09/30 10:41:40;;;;;;;8.73;7.03;;;691.80;1484.80;;;;;;5089160;28;20024;-65
2023/09/30 10:44:25;;;;;;;13.70;8.45;;;692.10;1510.40;;;;;;5087836;28;20069;-62
2023/09/30 10:46:52;;;;;;;15.82;9.43;;;691.90;1484.80;;;;;;5064494;28;20033;-64
2023/09/30 10:49:24;;;;;;;12.07;7.95;;;691.90;1459.20;;;;;;5084784;28;20085;-64
2023/09/30 10:51:56;;;;;;;17.77;8.95;;;691.70;1484.80;;;;;;5088221;28;20066;-64
2023/09/30 10:54:23;;;;;;;;;;;691.60;1484.80;;;;;;5088987;28;20523;-64
2023/09/30 10:56:49;;;;;;;12.88;7.43;;;691.60;1484.80;;;;;;5089058;28;19908;-64
2023/09/30 10:59:25;;;;;;;11.88;7.65;;;691.60;1484.80;;;;;;5088943;28;20025;-64
2023/09/30 11:01:52;;;;;;;12.23;7.45;;;691.60;1459.20;;;;;;5089245;28;20032;-66
2023/09/30 11:04:19;;;;;;;14.27;10.35;;;691.70;1484.80;;;;;;5088115;28;20031;-65
2023/09/30 11:06:46;;;;;;;11.13;8.10;;;691.80;1433.60;;;;;;5089452;28;20028;-65
2023/09/30 11:09:19;;;;;;;10.50;7.40;;;692.00;1433.60;;;;;;5069680;28;20035;-65
2023/09/30 11:11:50;;;;;;;10.32;5.88;;;692.00;1433.60;;;;;;5076620;28;20025;-64
2023/09/30 11:14:23;;;;;;;10.40;7.70;;;692.10;1459.20;;;;;;5089286;28;20028;-65
2023/09/30 11:16:51;;;;;;;13.77;8.00;;;692.10;1433.60;;;;;;5073484;28;20638;-65
2023/09/30 11:19:17;;;;;;;11.95;7.15;;;691.90;1433.60;;;;;;5063351;28;20118;-64
2023/09/30 11:21:45;;;;;;;10.27;8.43;;;691.80;1459.20;;;;;;5076719;28;20385;-65
2023/09/30 11:24:11;;;;;;;11.88;9.10;;;692.00;1433.60;;;;;;5077550;28;20066;-65
2023/09/30 11:26:37;;;;;;;11.02;8.32;;;692.10;1459.20;;;;;;5073923;28;20119;-64
2023/09/30 11:29:09;;;;;;;13.40;7.75;;;716.80;1459.20;;;;;;5070865;28;20028;-66
2023/09/30 11:31:37;;;;;;;15.75;7.43;;;716.80;1433.60;;;;;;5079458;28;20051;-65
2023/09/30 11:34:04;;;;;;;11.80;9.40;;;716.90;1433.60;;;;;;5081454;28;20101;-64
2023/09/30 11:36:34;;;;;;;11.50;8.10;;;716.90;1433.60;;;;;;5085950;28;20020;-64
2023/09/30 11:39:03;;;;;;;9.45;6.38;;;716.80;1433.60;;;;;;5088708;28;20016;-65
2023/09/30 11:41:39;;;;;;;7.68;6.78;;;691.90;1382.40;;;;;;5088435;28;20448;-66
2023/09/30 11:44:07;;;;;;;8.35;6.32;;;691.70;1408.00;;;;;;5088338;28;20036;-66
2023/09/30 11:46:51;;;;;;;10.07;6.70;;;691.80;1408.00;;;;;;5088300;28;20503;-64
2023/09/30 11:49:27;;;;;;;12.25;9.50;;;691.60;1382.40;;;;;;5082591;28;20024;-65
2023/09/30 11:51:53;;;;;;;15.63;11.70;;;691.60;1382.40;;;;;;5068359;28;20033;-65
2023/09/30 11:54:19;;;;;;;11.32;8.57;;;691.70;1408.00;;;;;;5086179;28;20423;-66
2023/09/30 11:56:47;;;;;;;7.88;6.40;;;691.80;1433.60;;;;;;5088442;28;20032;-65
2023/09/30 11:59:13;;;;;;;8.65;7.13;;;692.00;1459.20;;;;;;5088137;28;20381;-63
2023/09/30 12:01:38;;;;;;;11.43;7.40;;;691.90;1408.00;;;;;;5080944;28;20039;-63
2023/09/30 12:04:05;;;;;;;9.98;6.13;;;691.80;1408.00;;;;;;5079880;28;20419;-65
2023/09/30 12:06:31;;;;;;;11.13;6.80;;;691.90;1433.60;;;;;;5087205;28;20189;-64
2023/09/30 12:08:57;;;;;;;13.52;9.27;;;691.80;1382.40;;;;;;5092007;28;20081;-62
2023/09/30 12:11:23;;;;;;;11.77;8.55;;;691.90;1433.60;;;;;;5090505;28;20017;-64
2023/09/30 12:13:50;;;;;;;11.30;8.15;;;691.80;1433.60;;;;;;5084996;28;20038;-64
2023/09/30 12:16:16;;;;;;;11.88;7.72;;;691.80;1382.40;;;;;;5081213;28;20029;-65
2023/09/30 12:18:42;;;;;;;11.48;9.70;;;691.90;1433.60;;;;;;5076467;28;20048;-65
2023/09/30 12:21:13;;;;;;;12.57;9.93;;;691.70;1433.60;;;;;;5070947;28;20032;-66
2023/09/30 12:23:39;;;;;;;15.95;9.80;;;691.60;1459.20;;;;;;5071960;28;20039;-64